Notice: iconv(): Detected an illegal character in input string in /home/meteolat/www/weather28/wsLangFunctions.php on line 115

Notice: iconv(): Detected an illegal character in input string in /home/meteolat/www/weather28/wsLangFunctions.php on line 115
Météorologique de l'aéroport - Météo La Turballe
Notice: Undefined index: wuKey in /home/meteolat/www/weather28/wuforecast/wualmanac.php on line 27

Il s'agit d'un problème de communication. Allez directement sur le site Meteoalarm : www.meteoalarm.eu et vérifier les avertissements météorologiques..


Visitez nos sites météorologiques autres:

Template documentation
and downloads

And another site



Rapports METAR proximité

   
EHVK - Volkel Rnlafb, Netherlands
Distance: SO 18 km
Mise à jour: 20-06-2024 23:25
Nuageux  
Nuageux  
   Vent: NNE 7.4 km/h
Vent: NNE 7.4 km/h
Température: 17°C
Point de rosée: 14°C
Humidité: 83%
Baromètre: 1016 hPa
Nuageux: Nuageux
visibilité: More than 10 km
Détails des nuages: Nuageux 3900 ft
EHVK 202125Z AUTO 03004KT 340V050 9999 OVC039 17/14 Q1016 BLU
EDLV - Niederrhein, Germany
Distance: SE 25 km
Mise à jour: 20-06-2024 23:20
Nuageux  
Nuageux  
   Vent: North 7.4 km/h
Vent: North 7.4 km/h
Température: 18°C
Point de rosée: 14°C
Humidité: 78%
Baromètre: 1016 hPa
Nuageux: Nuageux
visibilité: More than 10 km
Détails des nuages: Nuageux 2700 ft
EDLV 202120Z 01004KT 340V040 9999 OVC027 18/14 Q1016
EHDL - Deelen Rnlafb, Netherlands
Distance: N 35 km
Mise à jour: 20-06-2024 23:25
Nuageux  
Nuageux  
   Vent: NE 5.6 km/h
Vent: NE 5.6 km/h
Température: 17°C
Point de rosée: 14°C
Humidité: 83%
Baromètre: 1016 hPa
Nuageux: Nuageux
visibilité: More than 10 km
Détails des nuages: Nuageux 3800 ft
EHDL 202125Z AUTO 04003KT 340V080 9999 OVC038 17/14 Q1016 BLU
EHEH - Eindhoven Rnlafb, Netherlands
Distance: SO 48 km
Mise à jour: 20-06-2024 23:25
Nuageux  
Nuageux  
   Vent: North 7.4 km/h
Vent: North 7.4 km/h
Température: 17°C
Point de rosée: 14°C
Humidité: 83%
Baromètre: 1016 hPa
Nuageux: Nuageux
visibilité: More than 10 km
Détails des nuages: Nuageux 3800 ft
EHEH 202125Z AUTO 01004KT 330V050 9999 OVC038 17/14 Q1016 BLU NOSIG
EHGR - Gilze-Rijen Rnla, Netherlands
Distance: OSO 70 km
Mise à jour: 20-06-2024 23:25
Nuageux  
Nuageux  
   Vent: North 11.1 km/h
Vent: North 11.1 km/h
Température: 17°C
Point de rosée: 14°C
Humidité: 83%
Baromètre: 1016 hPa
Nuageux: Nuageux
visibilité: More than 10 km
Détails des nuages: Nuageux 4300 ft
EHGR 202125Z AUTO 01006KT 300V040 9999 OVC043 17/14 Q1016 BLU
EBBL - Kleine-Brogel(Ba, Belgium
Distance: SSO 71 km
Mise à jour: 20-06-2024 23:25
Nuageux  
Nuageux  
   Vent: varie 1.9 km/h
Vent: varie 1.9 km/h
Température: 17°C
Point de rosée: 13°C
Humidité: 77%
Baromètre: 1016 hPa
Nuageux: Nuageux
visibilité: More than 10 km
Détails des nuages: Nuageux 2800 ft
EBBL 202125Z AUTO VRB01KT 9999 OVC028/// 17/13 Q1016 BLU

Script développé par  Saratoga-weather.org Adapté pour le modèle par  Weerstation Leuven

Équipement que nous utilisons:

Station de Météo
Davis Vantage Pro2

Davis Vantage Pro2